Time;durP1;ratioP1;P1;durP2;ratioP2;P2;SDS_P1;SDS_P2;PMS_P1;PMS_P2;Temp;Humidity;BMP_temperature;BMP_pressure;BME280_temperature;BME280_humidity;BME280_pressure;Samples;Min_cycle;Max_cycle;Signal;HPM_P1;HPM_P2
2021/03/10 00:01:14;;;;;;;20.53;10.67;;;4.60;87.50;;;;;;5036541;28;20086;-76
2021/03/10 00:03:40;;;;;;;18.67;10.50;;;4.50;87.60;;;;;;5054215;28;20029;-77
2021/03/10 00:06:06;;;;;;;17.87;10.60;;;4.50;87.90;;;;;;5036519;28;20107;-76
2021/03/10 00:08:32;;;;;;;19.00;10.73;;;4.50;88.10;;;;;;5052982;28;20036;-77
2021/03/10 00:10:57;;;;;;;20.57;10.17;;;4.50;88.30;;;;;;5036346;28;20412;-76
2021/03/10 00:13:23;;;;;;;20.57;11.00;;;4.50;88.40;;;;;;5054235;28;20040;-76
2021/03/10 00:15:49;;;;;;;18.73;10.73;;;4.50;88.50;;;;;;5036017;28;20039;-77
2021/03/10 00:18:14;;;;;;;18.17;10.10;;;4.50;88.50;;;;;;5036273;28;20112;-77
2021/03/10 00:20:40;;;;;;;21.27;11.90;;;4.50;88.70;;;;;;5035914;28;20098;-77
2021/03/10 00:23:06;;;;;;;19.97;11.13;;;4.50;88.90;;;;;;5054236;28;20514;-78
2021/03/10 00:25:31;;;;;;;20.10;11.57;;;4.50;89.00;;;;;;5053716;28;20532;-76
2021/03/10 00:27:57;;;;;;;20.87;11.77;;;4.50;89.10;;;;;;5037276;28;20025;-76
2021/03/10 00:30:23;;;;;;;20.30;11.30;;;4.40;89.20;;;;;;5052838;28;20036;-77
2021/03/10 00:32:48;;;;;;;21.33;12.33;;;4.50;89.30;;;;;;5052340;28;20047;-77
2021/03/10 00:35:14;;;;;;;22.70;12.10;;;4.50;89.30;;;;;;5019031;28;20385;-76
2021/03/10 00:37:40;;;;;;;22.13;12.37;;;4.60;89.30;;;;;;5035863;28;20021;-76
2021/03/10 00:40:06;;;;;;;23.97;12.73;;;4.50;89.40;;;;;;5035640;28;20116;-77
2021/03/10 00:42:31;;;;;;;20.57;12.03;;;4.50;89.20;;;;;;5053598;28;20385;-77
2021/03/10 00:44:58;;;;;;;23.03;12.47;;;4.40;89.10;;;;;;5052167;28;20020;-77
2021/03/10 00:47:23;;;;;;;20.50;12.00;;;4.40;89.10;;;;;;5052145;28;20167;-76
2021/03/10 00:49:49;;;;;;;21.50;12.40;;;4.30;89.00;;;;;;5053579;28;20068;-76
2021/03/10 00:52:15;;;;;;;22.07;12.40;;;4.30;89.10;;;;;;5035388;28;20499;-77
2021/03/10 00:54:41;;;;;;;22.77;13.03;;;4.30;89.20;;;;;;5052484;28;20021;-77
2021/03/10 00:57:07;;;;;;;22.87;12.20;;;4.20;89.30;;;;;;5053286;28;20048;-77
2021/03/10 00:59:32;;;;;;;22.10;13.50;;;4.20;89.40;;;;;;5035346;28;20029;-76
2021/03/10 01:01:58;;;;;;;22.33;12.67;;;4.10;89.60;;;;;;5053093;28;20029;-76
2021/03/10 01:04:24;;;;;;;23.80;12.83;;;4.10;89.80;;;;;;5051901;28;20096;-76
2021/03/10 01:06:50;;;;;;;25.60;12.70;;;4.10;89.90;;;;;;5052024;28;20431;-77
2021/03/10 01:09:17;;;;;;;26.37;13.13;;;4.00;89.90;;;;;;5051623;28;20500;-77
2021/03/10 01:11:43;;;;;;;26.70;13.63;;;4.00;90.00;;;;;;5071908;28;20035;-77
2021/03/10 01:14:09;;;;;;;25.47;13.60;;;4.00;90.10;;;;;;5055368;28;20021;-76
2021/03/10 01:16:35;;;;;;;24.23;12.77;;;4.00;90.10;;;;;;5055325;28;20488;-76
2021/03/10 01:19:01;;;;;;;26.10;14.10;;;3.90;90.10;;;;;;5072062;28;20031;-77
2021/03/10 01:21:27;;;;;;;24.97;13.60;;;3.90;90.20;;;;;;5054735;28;20040;-76
2021/03/10 01:23:53;;;;;;;25.10;13.43;;;4.00;90.20;;;;;;5038442;28;20039;-76
2021/03/10 01:26:18;;;;;;;24.80;13.67;;;3.90;90.30;;;;;;5054887;28;20439;-77
2021/03/10 01:28:44;;;;;;;26.70;14.33;;;3.90;90.30;;;;;;5054846;28;20028;-76
2021/03/10 01:31:09;;;;;;;22.80;13.07;;;3.90;90.40;;;;;;5071646;28;20037;-76
2021/03/10 01:33:35;;;;;;;22.23;12.87;;;3.90;90.30;;;;;;5054865;28;20028;-76
2021/03/10 01:36:01;;;;;;;23.07;12.47;;;3.90;90.40;;;;;;5072757;28;20016;-76
2021/03/10 01:38:27;;;;;;;21.57;12.07;;;3.80;90.30;;;;;;5055106;28;20377;-75
2021/03/10 01:40:52;;;;;;;23.13;13.30;;;3.80;90.30;;;;;;5054994;28;20044;-76
2021/03/10 01:43:18;;;;;;;20.73;11.53;;;3.80;90.40;;;;;;5038070;28;20036;-76
2021/03/10 01:45:43;;;;;;;19.30;11.57;;;3.80;90.40;;;;;;5053097;28;20641;-76
2021/03/10 01:48:10;;;;;;;21.73;11.83;;;3.70;90.40;;;;;;5042339;28;20150;-76
2021/03/10 01:50:36;;;;;;;22.77;11.97;;;3.70;90.50;;;;;;5058510;28;20040;-76
2021/03/10 01:53:03;;;;;;;23.23;12.80;;;3.70;90.50;;;;;;5075295;28;20033;-76
2021/03/10 01:55:29;;;;;;;22.33;11.83;;;3.70;90.60;;;;;;5075581;28;20067;-76
2021/03/10 01:57:55;;;;;;;22.47;12.10;;;3.70;90.60;;;;;;5058694;28;20024;-76
2021/03/10 02:00:21;;;;;;;22.63;12.53;;;3.60;90.50;;;;;;5058676;28;20035;-76
2021/03/10 02:02:47;;;;;;;21.33;12.10;;;3.60;90.60;;;;;;5075128;28;20559;-76
2021/03/10 02:05:16;;;;;;;21.77;11.93;;;3.60;90.60;;;;;;5075584;28;20108;-76
2021/03/10 02:08:05;;;;;;;22.47;12.60;;;3.60;90.60;;;;;;5075125;28;20409;-76
2021/03/10 02:10:49;;;;;;;22.17;11.33;;;3.60;90.70;;;;;;5075154;28;20032;-76
2021/03/10 02:13:24;;;;;;;24.98;11.98;;;3.50;90.70;;;;;;5074900;28;20017;-76
2021/03/10 02:15:59;;;;;;;23.77;12.60;;;3.50;90.60;;;;;;5076045;28;20046;-76
2021/03/10 02:18:32;;;;;;;22.17;12.33;;;3.50;90.70;;;;;;5074891;28;20024;-76
2021/03/10 02:21:01;;;;;;;22.08;12.10;;;3.50;90.70;;;;;;5074682;28;20145;-76
2021/03/10 02:23:56;;;;;;;23.17;12.70;;;3.40;90.70;;;;;;5075908;28;20032;-76
2021/03/10 02:26:39;;;;;;;21.53;11.13;;;3.40;90.70;;;;;;5065400;28;20036;-76
2021/03/10 02:29:07;;;;;;;22.60;11.13;;;3.40;90.70;;;;;;5071530;28;20024;-76
2021/03/10 02:31:47;;;;;;;24.40;11.63;;;3.40;90.80;;;;;;5057670;28;20132;-76
2021/03/10 02:34:14;;;;;;;21.33;12.70;;;3.40;90.80;;;;;;5076012;28;20066;-76
2021/03/10 02:36:41;;;;;;;24.10;12.10;;;3.40;90.90;;;;;;5058549;28;20472;-76
2021/03/10 02:39:08;;;;;;;20.13;11.67;;;3.40;91.00;;;;;;5074893;28;20165;-76
2021/03/10 02:41:34;;;;;;;23.23;12.40;;;3.40;91.00;;;;;;5057758;28;20033;-76
2021/03/10 02:44:02;;;;;;;22.03;11.87;;;3.40;91.10;;;;;;5058232;28;20025;-76
2021/03/10 02:46:29;;;;;;;21.47;12.43;;;3.50;91.20;;;;;;5058249;28;20055;-76
2021/03/10 02:48:55;;;;;;;21.67;12.40;;;3.50;91.30;;;;;;5057990;28;20116;-76
2021/03/10 02:51:21;;;;;;;22.87;12.83;;;3.50;91.40;;;;;;5074952;28;20024;-76
2021/03/10 02:53:48;;;;;;;21.07;11.20;;;3.50;91.70;;;;;;5057840;28;20423;-76
2021/03/10 02:56:15;;;;;;;24.33;12.30;;;3.60;91.50;;;;;;5073905;28;20082;-76
2021/03/10 02:58:42;;;;;;;22.93;12.30;;;3.70;91.50;;;;;;5074518;28;20108;-76
2021/03/10 03:01:08;;;;;;;20.67;11.87;;;3.70;91.50;;;;;;5057769;28;20111;-76
2021/03/10 03:03:35;;;;;;;25.00;13.70;;;3.70;91.50;;;;;;5074221;28;20027;-77
2021/03/10 03:06:01;;;;;;;23.53;12.60;;;3.80;91.50;;;;;;5057549;28;20480;-76
2021/03/10 03:08:27;;;;;;;23.07;13.03;;;3.80;91.50;;;;;;5057694;28;20103;-76
2021/03/10 03:10:53;;;;;;;23.73;13.00;;;3.80;91.50;;;;;;5074322;28;20028;-77
2021/03/10 03:13:20;;;;;;;22.10;13.10;;;3.80;91.50;;;;;;5074417;28;20500;-76
2021/03/10 03:15:55;;;;;;;26.03;14.10;;;3.90;91.50;;;;;;5073973;28;20025;-77
2021/03/10 03:18:21;;;;;;;24.47;13.37;;;3.90;91.50;;;;;;5074295;28;20035;-76
2021/03/10 03:20:49;;;;;;;24.50;12.60;;;3.90;91.50;;;;;;5057283;28;20048;-75
2021/03/10 03:23:17;;;;;;;22.40;12.70;;;3.90;91.50;;;;;;5075419;28;20040;-76
2021/03/10 03:25:44;;;;;;;25.13;13.17;;;4.00;91.50;;;;;;5041122;28;20039;-76
2021/03/10 03:28:15;;;;;;;21.60;12.17;;;4.00;91.50;;;;;;5057115;28;20533;-76
2021/03/10 03:30:42;;;;;;;26.80;12.63;;;4.00;91.50;;;;;;5058294;28;20021;-76
2021/03/10 03:33:11;;;;;;;21.20;11.77;;;4.00;91.50;;;;;;5074074;28;20098;-75
2021/03/10 03:35:38;;;;;;;22.10;12.67;;;4.00;91.40;;;;;;5075038;28;20020;-76
2021/03/10 03:38:05;;;;;;;22.23;13.30;;;4.10;91.40;;;;;;5075122;28;20024;-76
2021/03/10 03:40:32;;;;;;;25.67;13.83;;;4.10;91.50;;;;;;5057289;28;20032;-76
2021/03/10 03:42:58;;;;;;;25.03;13.80;;;4.20;91.50;;;;;;5040318;28;20038;-76
2021/03/10 03:45:25;;;;;;;23.73;13.37;;;4.20;91.50;;;;;;5073521;28;20027;-77
2021/03/10 03:47:52;;;;;;;22.57;13.37;;;4.20;91.50;;;;;;5057107;28;20095;-76
2021/03/10 03:50:19;;;;;;;22.70;13.57;;;4.30;91.50;;;;;;5057040;28;20120;-76
2021/03/10 03:52:45;;;;;;;24.40;14.23;;;4.20;91.70;;;;;;5073697;28;20480;-76
2021/03/10 03:55:12;;;;;;;23.17;13.37;;;4.30;91.50;;;;;;5073608;28;20028;-76
2021/03/10 03:57:39;;;;;;;25.97;14.00;;;4.40;91.60;;;;;;5073489;28;20077;-76
2021/03/10 04:00:09;;;;;;;25.13;14.03;;;4.40;91.50;;;;;;5056838;28;20342;-76
2021/03/10 04:02:35;;;;;;;23.63;13.37;;;4.40;91.50;;;;;;5073084;28;20036;-76
2021/03/10 04:05:01;;;;;;;26.73;14.93;;;4.40;91.50;;;;;;5056506;28;20024;-76
2021/03/10 04:07:27;;;;;;;24.67;13.10;;;4.50;91.50;;;;;;5072974;28;20024;-76
2021/03/10 04:09:52;;;;;;;24.27;13.37;;;4.50;91.50;;;;;;5055761;28;20048;-76
2021/03/10 04:12:18;;;;;;;24.07;14.10;;;4.50;91.40;;;;;;5072840;28;20037;-76
2021/03/10 04:14:44;;;;;;;24.57;13.73;;;4.60;91.40;;;;;;5074253;28;20043;-76
2021/03/10 04:17:10;;;;;;;26.97;15.33;;;4.60;91.40;;;;;;5056336;28;20033;-77
2021/03/10 04:19:35;;;;;;;24.10;13.73;;;4.70;91.30;;;;;;5072608;28;20123;-76
2021/03/10 04:22:01;;;;;;;23.23;13.30;;;4.70;91.30;;;;;;5072460;28;20056;-76
2021/03/10 04:24:26;;;;;;;25.73;13.60;;;4.70;91.30;;;;;;5056023;28;20024;-76
2021/03/10 04:26:52;;;;;;;22.50;13.27;;;4.70;91.30;;;;;;5072767;28;20058;-76
2021/03/10 04:29:18;;;;;;;24.23;13.90;;;4.70;91.30;;;;;;5072470;28;20024;-75
2021/03/10 04:31:43;;;;;;;24.73;13.70;;;4.70;91.30;;;;;;5072568;28;20033;-76
2021/03/10 04:34:09;;;;;;;24.27;14.83;;;4.80;91.30;;;;;;5055712;28;20028;-78
2021/03/10 04:36:35;;;;;;;21.17;12.17;;;4.80;91.30;;;;;;5072478;28;20078;-76
2021/03/10 04:39:00;;;;;;;22.70;13.80;;;4.70;91.30;;;;;;5072686;28;20523;-76
2021/03/10 04:41:26;;;;;;;23.83;14.60;;;4.80;91.40;;;;;;5055510;28;20484;-76
2021/03/10 04:43:51;;;;;;;24.50;14.10;;;4.80;91.40;;;;;;5055681;28;20029;-76
2021/03/10 04:46:18;;;;;;;25.80;14.23;;;4.80;91.40;;;;;;5055595;28;20032;-76
2021/03/10 04:48:43;;;;;;;24.30;14.30;;;4.80;91.40;;;;;;5055727;28;20035;-76
2021/03/10 04:51:09;;;;;;;22.33;13.13;;;4.80;91.40;;;;;;5039516;28;20388;-76
2021/03/10 04:53:35;;;;;;;21.20;13.00;;;4.90;91.70;;;;;;5055674;28;20028;-77
2021/03/10 04:56:00;;;;;;;22.40;14.10;;;4.90;91.50;;;;;;5072089;28;20041;-76
2021/03/10 04:58:27;;;;;;;24.60;14.37;;;4.90;91.50;;;;;;5055562;28;20032;-76
2021/03/10 05:00:53;;;;;;;23.20;13.47;;;4.90;91.50;;;;;;5072072;28;20039;-76
2021/03/10 05:03:18;;;;;;;24.37;13.80;;;4.90;91.50;;;;;;5055249;28;20123;-76
2021/03/10 05:05:44;;;;;;;21.97;13.83;;;4.90;91.40;;;;;;5071477;28;20032;-76
2021/03/10 05:08:11;;;;;;;25.97;14.80;;;5.00;91.40;;;;;;5055003;28;20025;-77
2021/03/10 05:10:37;;;;;;;24.40;13.70;;;5.00;91.40;;;;;;5039342;28;20139;-76
2021/03/10 05:13:02;;;;;;;24.27;14.33;;;5.00;91.40;;;;;;5073210;28;20107;-77
2021/03/10 05:15:28;;;;;;;22.27;13.77;;;5.00;91.30;;;;;;5039299;28;20123;-81
2021/03/10 05:17:54;;;;;;;22.80;13.73;;;5.10;91.20;;;;;;5071828;28;20044;-81
2021/03/10 05:20:20;;;;;;;23.73;13.80;;;5.20;91.20;;;;;;5038111;28;20481;-80
2021/03/10 05:22:45;;;;;;;23.30;14.33;;;5.00;91.20;;;;;;5055050;28;20059;-81
2021/03/10 05:25:11;;;;;;;23.40;14.33;;;5.00;91.20;;;;;;5038419;28;20415;-81
2021/03/10 05:27:37;;;;;;;23.53;14.87;;;5.00;91.30;;;;;;5071674;28;20427;-81
2021/03/10 05:30:06;;;;;;;23.60;14.73;;;5.00;91.30;;;;;;5055286;28;20031;-76
2021/03/10 05:32:32;;;;;;;24.83;15.03;;;5.10;91.30;;;;;;5071694;28;20028;-76
2021/03/10 05:34:57;;;;;;;24.23;13.70;;;5.10;91.30;;;;;;5055055;28;20085;-76
2021/03/10 05:37:23;;;;;;;24.20;14.93;;;5.10;91.30;;;;;;5038365;28;20032;-76
2021/03/10 05:39:49;;;;;;;27.27;14.90;;;5.10;91.30;;;;;;5038362;28;20046;-80
2021/03/10 05:42:14;;;;;;;22.27;14.17;;;5.10;91.30;;;;;;5054921;28;20040;-81
2021/03/10 05:44:40;;;;;;;22.23;14.53;;;5.10;91.30;;;;;;5054758;28;20025;-81
2021/03/10 05:47:07;;;;;;;23.57;14.87;;;5.10;91.40;;;;;;5054946;28;20028;-81
2021/03/10 05:49:32;;;;;;;21.23;13.27;;;5.20;91.40;;;;;;5055194;28;20112;-81
2021/03/10 05:52:03;;;;;;;22.63;13.80;;;5.20;91.50;;;;;;5054831;28;20444;-81
2021/03/10 05:54:29;;;;;;;24.43;14.87;;;5.20;91.50;;;;;;5071551;28;20499;-81
2021/03/10 05:56:58;;;;;;;22.60;14.43;;;5.20;91.50;;;;;;5072783;28;20051;-80
2021/03/10 05:59:26;;;;;;;24.20;14.53;;;5.20;91.40;;;;;;5072703;28;20032;-81
2021/03/10 06:01:53;;;;;;;23.20;14.33;;;5.20;91.50;;;;;;5071549;28;20033;-80
2021/03/10 06:04:19;;;;;;;22.10;13.87;;;5.20;91.40;;;;;;5055370;28;20032;-81
2021/03/10 06:06:44;;;;;;;25.43;14.53;;;5.20;91.40;;;;;;5072541;28;20025;-81
2021/03/10 06:09:14;;;;;;;23.97;15.20;;;5.40;91.40;;;;;;5071357;28;20485;-81
2021/03/10 06:11:52;;;;;;;23.67;14.03;;;5.30;91.30;;;;;;5072666;28;20024;-81
2021/03/10 06:14:18;;;;;;;25.27;13.93;;;5.30;91.30;;;;;;5070945;28;20518;-80
2021/03/10 06:16:43;;;;;;;24.53;14.90;;;5.30;91.40;;;;;;5054328;28;20015;-81
2021/03/10 06:19:09;;;;;;;23.43;14.87;;;5.20;91.30;;;;;;5037797;28;20032;-81
2021/03/10 06:21:35;;;;;;;26.43;15.67;;;5.20;91.30;;;;;;5071062;28;20045;-81
2021/03/10 06:24:03;;;;;;;26.80;15.73;;;5.30;91.40;;;;;;5054389;28;20102;-81
2021/03/10 06:26:34;;;;;;;23.43;14.73;;;5.30;91.30;;;;;;5069540;28;20021;-80
2021/03/10 06:29:02;;;;;;;23.00;14.07;;;5.40;91.30;;;;;;5070939;28;20499;-80
2021/03/10 06:31:31;;;;;;;26.33;15.00;;;5.30;91.30;;;;;;5071255;28;20427;-81
2021/03/10 06:34:01;;;;;;;24.47;14.67;;;5.30;91.30;;;;;;5075982;28;20035;-81
2021/03/10 06:36:27;;;;;;;25.20;14.97;;;5.30;91.30;;;;;;5074697;28;20031;-81
2021/03/10 06:38:54;;;;;;;25.60;14.93;;;5.30;91.30;;;;;;5074687;28;20071;-81
2021/03/10 06:41:42;;;;;;;28.57;16.00;;;5.40;91.30;;;;;;5075937;28;20104;-81
2021/03/10 06:44:22;;;;;;;26.60;15.63;;;5.40;91.30;;;;;;5059696;28;20476;-81
2021/03/10 06:47:06;;;;;;;27.73;15.57;;;5.40;91.30;;;;;;5074479;28;20086;-81
2021/03/10 06:49:34;;;;;;;28.00;16.50;;;5.40;91.30;;;;;;5074425;28;20064;-81
2021/03/10 06:52:03;;;;;;;32.43;17.93;;;5.40;91.30;;;;;;5074477;28;20029;-81
2021/03/10 06:54:30;;;;;;;33.27;18.70;;;5.50;91.60;;;;;;5075704;28;20025;-81
2021/03/10 06:57:14;;;;;;;35.17;19.30;;;5.40;91.40;;;;;;5075703;28;20032;-81
2021/03/10 06:59:44;;;;;;;38.80;21.85;;;5.40;91.40;;;;;;5074281;28;20040;-80
2021/03/10 07:02:22;;;;;;;42.87;22.60;;;5.50;91.50;;;;;;5074015;28;20433;-79
2021/03/10 07:04:52;;;;;;;44.90;24.60;;;5.50;91.50;;;;;;5074077;28;20028;-81
2021/03/10 07:07:18;;;;;;;44.57;24.23;;;5.60;91.60;;;;;;5064043;28;20453;-81
2021/03/10 07:09:45;;;;;;;48.13;26.03;;;5.50;91.70;;;;;;5057074;28;20468;-80
2021/03/10 07:12:13;;;;;;;50.87;27.53;;;5.60;91.60;;;;;;5073795;28;20028;-80
2021/03/10 07:14:40;;;;;;;51.73;27.37;;;5.60;91.70;;;;;;5068342;28;20021;-81
2021/03/10 07:17:07;;;;;;;56.87;29.17;;;5.70;91.70;;;;;;5064361;28;20032;-81
2021/03/10 07:19:32;;;;;;;54.40;30.97;;;5.70;92.10;;;;;;5062932;28;20035;-81
2021/03/10 07:22:03;;;;;;;64.17;32.60;;;5.80;92.10;;;;;;5062867;28;20044;-80
2021/03/10 07:24:32;;;;;;;56.13;29.80;;;5.70;92.10;;;;;;5064433;28;20032;-80
2021/03/10 07:26:59;;;;;;;52.00;29.97;;;5.70;92.10;;;;;;5062004;28;20514;-79
2021/03/10 07:29:26;;;;;;;55.07;33.30;;;5.80;92.10;;;;;;5064544;28;20029;-80
2021/03/10 07:32:00;;;;;;;56.23;30.57;;;5.80;92.20;;;;;;5063101;28;20163;-79
2021/03/10 07:34:27;;;;;;;61.97;34.17;;;5.80;92.10;;;;;;5061974;28;20063;-79
2021/03/10 07:36:53;;;;;;;58.33;31.77;;;5.80;92.20;;;;;;5063066;28;20415;-80
2021/03/10 07:39:24;;;;;;;52.17;30.47;;;5.90;92.20;;;;;;5062659;28;20031;-81
2021/03/10 07:41:50;;;;;;;54.83;31.27;;;5.90;92.20;;;;;;5063824;28;20139;-79
2021/03/10 07:44:25;;;;;;;62.33;33.23;;;5.90;92.10;;;;;;5062720;28;20467;-80
2021/03/10 07:47:07;;;;;;;61.67;33.70;;;6.00;92.20;;;;;;5062512;28;20159;-80
2021/03/10 07:49:33;;;;;;;57.07;32.73;;;6.00;92.10;;;;;;5064757;28;20048;-80
2021/03/10 07:52:07;;;;;;;59.87;32.80;;;6.00;92.30;;;;;;5055498;28;20059;-80
2021/03/10 07:54:33;;;;;;;61.67;33.65;;;6.00;92.20;;;;;;5057709;28;20182;-80
2021/03/10 07:57:16;;;;;;;54.93;31.07;;;6.00;92.10;;;;;;5063759;28;20118;-80
2021/03/10 07:59:56;;;;;;;57.40;33.83;;;6.00;92.10;;;;;;5073220;28;20497;-81
2021/03/10 08:02:23;;;;;;;60.23;34.17;;;6.10;92.10;;;;;;5073012;28;20116;-81
2021/03/10 08:04:58;;;;;;;58.47;33.33;;;6.20;92.10;;;;;;5049606;28;20550;-79
2021/03/10 08:07:26;;;;;;;58.87;33.27;;;6.20;92.10;;;;;;5054371;28;20477;-79
2021/03/10 08:09:53;;;;;;;56.30;33.67;;;6.20;92.10;;;;;;5037061;28;20112;-79
2021/03/10 08:12:30;;;;;;;55.80;32.90;;;6.20;92.00;;;;;;5052827;28;20438;-79
2021/03/10 08:14:56;;;;;;;65.13;35.40;;;6.20;92.00;;;;;;5053115;28;20028;-79
2021/03/10 08:17:22;;;;;;;57.37;32.10;;;6.40;92.00;;;;;;5054087;28;20388;-80
2021/03/10 08:19:56;;;;;;;56.47;34.40;;;6.40;92.00;;;;;;5052660;28;20035;-78
2021/03/10 08:22:24;;;;;;;58.63;33.78;;;6.40;91.90;;;;;;5052789;28;20057;-78
2021/03/10 08:24:51;;;;;;;55.63;32.97;;;6.50;92.00;;;;;;5056733;28;20473;-78
2021/03/10 08:27:27;;;;;;;55.43;32.50;;;6.50;91.90;;;;;;5057570;28;20481;-78
2021/03/10 08:29:53;;;;;;;58.37;34.37;;;6.60;91.90;;;;;;5061181;28;20552;-77
2021/03/10 08:32:28;;;;;;;58.47;34.77;;;6.60;91.80;;;;;;5063489;28;20037;-78
2021/03/10 08:35:00;;;;;;;55.00;33.67;;;6.60;91.80;;;;;;5060489;28;20506;-79
2021/03/10 08:37:27;;;;;;;61.30;34.90;;;6.60;91.80;;;;;;5053267;28;20032;-78
2021/03/10 08:39:53;;;;;;;60.77;34.27;;;6.60;91.80;;;;;;5052831;28;20025;-78
2021/03/10 08:42:21;;;;;;;57.37;33.30;;;6.70;91.70;;;;;;5052203;28;20473;-78
2021/03/10 08:44:48;;;;;;;56.57;34.50;;;6.80;91.70;;;;;;5052299;28;20029;-78
2021/03/10 08:47:25;;;;;;;63.63;36.77;;;6.80;91.60;;;;;;5053402;28;20124;-78
2021/03/10 08:49:54;;;;;;;59.37;35.03;;;6.80;91.50;;;;;;5053580;28;20020;-78
2021/03/10 08:52:20;;;;;;;60.10;36.27;;;6.90;91.50;;;;;;5040673;28;20481;-78
2021/03/10 08:55:00;;;;;;;58.70;35.90;;;6.90;91.60;;;;;;5053652;28;20358;-80
2021/03/10 08:57:34;;;;;;;58.63;35.50;;;7.00;91.50;;;;;;5051873;28;20108;-78
2021/03/10 09:00:05;;;;;;;54.90;33.92;;;7.00;91.40;;;;;;5051767;28;20411;-78
2021/03/10 09:02:33;;;;;;;59.07;34.10;;;7.10;91.40;;;;;;5060467;28;20047;-78
2021/03/10 09:05:00;;;;;;;62.20;34.97;;;7.10;91.30;;;;;;5073096;28;20036;-78
2021/03/10 09:07:27;;;;;;;60.20;35.73;;;7.20;91.30;;;;;;5071902;28;20433;-78
2021/03/10 09:09:56;;;;;;;59.33;34.73;;;7.20;91.00;;;;;;5072974;28;20385;-79
2021/03/10 09:12:21;;;;;;;59.13;35.23;;;7.20;90.90;;;;;;5071701;28;20024;-80
2021/03/10 09:14:48;;;;;;;61.40;37.30;;;7.20;90.80;;;;;;5073158;28;20032;-79
2021/03/10 09:17:13;;;;;;;54.57;33.93;;;7.20;90.60;;;;;;5019051;28;20463;-79
2021/03/10 09:19:43;;;;;;;58.83;34.77;;;7.30;90.70;;;;;;5035066;28;20120;-79
2021/03/10 09:22:22;;;;;;;60.97;34.87;;;7.30;90.70;;;;;;5035194;28;20057;-78
2021/03/10 09:24:53;;;;;;;56.47;34.70;;;7.40;90.70;;;;;;5051617;28;20461;-79
2021/03/10 09:27:24;;;;;;;57.60;34.47;;;7.40;90.70;;;;;;5051620;28;20048;-79
2021/03/10 09:29:51;;;;;;;53.53;33.77;;;7.40;90.50;;;;;;5051416;28;20021;-80
2021/03/10 09:32:17;;;;;;;59.33;35.57;;;7.50;90.20;;;;;;5059149;28;20025;-79
2021/03/10 09:34:47;;;;;;;55.93;33.60;;;7.50;90.00;;;;;;5053052;28;20654;-79
2021/03/10 09:37:13;;;;;;;51.10;33.33;;;7.50;90.00;;;;;;5033663;28;20040;-80
2021/03/10 09:39:47;;;;;;;59.23;34.30;;;7.60;90.00;;;;;;5049896;28;20061;-80
2021/03/10 09:42:13;;;;;;;62.65;35.05;;;7.60;90.00;;;;;;5052045;28;20025;-81
2021/03/10 09:44:43;;;;;;;51.40;33.03;;;7.60;89.70;;;;;;5034446;28;20028;-80
2021/03/10 09:47:21;;;;;;;52.17;33.53;;;7.60;89.40;;;;;;5051240;28;20033;-80
2021/03/10 09:49:55;;;;;;;58.60;34.27;;;7.80;89.60;;;;;;5052388;28;20033;-79
2021/03/10 09:52:31;;;;;;;53.03;31.98;;;7.70;89.20;;;;;;5052355;28;20029;-81
2021/03/10 09:54:58;;;;;;;49.70;30.73;;;7.80;89.40;;;;;;5051202;28;20136;-81
2021/03/10 09:57:27;;;;;;;57.60;35.03;;;7.90;88.90;;;;;;5051109;28;20480;-80
2021/03/10 09:59:54;;;;;;;51.33;30.97;;;7.80;88.50;;;;;;5050846;28;20115;-78
2021/03/10 10:02:20;;;;;;;50.93;32.17;;;8.10;88.40;;;;;;5066439;28;20075;-78
2021/03/10 10:04:57;;;;;;;47.97;30.63;;;8.00;88.20;;;;;;5047599;28;20151;-78
2021/03/10 10:07:24;;;;;;;47.63;31.77;;;8.00;88.00;;;;;;5059493;28;20024;-79
2021/03/10 10:09:50;;;;;;;48.27;31.90;;;8.10;87.80;;;;;;5065675;28;20074;-75
2021/03/10 10:12:15;;;;;;;48.57;30.53;;;8.10;87.60;;;;;;5061825;28;20166;-78
2021/03/10 10:14:41;;;;;;;50.43;31.10;;;8.10;87.60;;;;;;5065144;28;20104;-78
2021/03/10 10:17:06;;;;;;;50.10;31.53;;;8.10;87.40;;;;;;5051601;28;20064;-78
2021/03/10 10:19:32;;;;;;;45.87;30.63;;;8.20;87.90;;;;;;5050043;28;20131;-79
2021/03/10 10:21:58;;;;;;;49.27;30.07;;;8.20;87.30;;;;;;5067283;28;20049;-78
2021/03/10 10:24:24;;;;;;;49.63;30.07;;;8.20;87.10;;;;;;5065426;28;20024;-78
2021/03/10 10:26:49;;;;;;;50.23;31.50;;;8.30;86.90;;;;;;5062879;28;20025;-79
2021/03/10 10:29:15;;;;;;;52.17;31.23;;;8.30;86.80;;;;;;5055332;28;20389;-78
2021/03/10 10:31:41;;;;;;;46.73;29.47;;;8.30;86.70;;;;;;5056793;28;20087;-79
2021/03/10 10:34:07;;;;;;;44.30;28.37;;;8.40;86.60;;;;;;5072624;28;20089;-78
2021/03/10 10:36:32;;;;;;;43.67;28.57;;;8.40;86.30;;;;;;5074245;28;20484;-78
2021/03/10 10:38:58;;;;;;;44.73;28.40;;;8.50;86.00;;;;;;5054336;28;20063;-78
2021/03/10 10:41:23;;;;;;;44.43;27.97;;;8.70;85.70;;;;;;5021508;28;20035;-80
2021/03/10 10:43:49;;;;;;;43.37;27.60;;;8.60;85.60;;;;;;5054419;28;20048;-78
2021/03/10 10:46:15;;;;;;;44.00;29.53;;;8.60;85.00;;;;;;5021688;28;20059;-79
2021/03/10 10:48:40;;;;;;;41.30;26.90;;;8.80;85.50;;;;;;5054476;28;20104;-78
2021/03/10 10:51:06;;;;;;;42.73;28.87;;;8.80;84.60;;;;;;5054292;28;20029;-78
2021/03/10 10:53:31;;;;;;;46.57;29.57;;;8.90;84.50;;;;;;5070980;28;20039;-79
2021/03/10 10:55:57;;;;;;;43.87;28.40;;;8.90;83.30;;;;;;5021257;28;20025;-78
2021/03/10 10:58:23;;;;;;;43.63;26.80;;;8.90;83.20;;;;;;5055555;28;20029;-79
2021/03/10 11:00:48;;;;;;;44.83;29.00;;;8.90;82.70;;;;;;5055430;28;20388;-79
2021/03/10 11:03:14;;;;;;;42.53;26.50;;;8.90;82.80;;;;;;5054260;28;20152;-79
2021/03/10 11:05:40;;;;;;;45.17;28.40;;;8.90;83.00;;;;;;5054179;28;20178;-78
2021/03/10 11:08:06;;;;;;;39.47;25.60;;;8.90;82.50;;;;;;5070578;28;20033;-79
2021/03/10 11:10:31;;;;;;;40.63;25.17;;;9.00;82.40;;;;;;5020547;28;20396;-79
2021/03/10 11:12:57;;;;;;;45.13;26.17;;;9.00;81.50;;;;;;5055025;28;20346;-79
2021/03/10 11:15:23;;;;;;;47.27;27.17;;;9.00;81.50;;;;;;5053645;28;20112;-79
2021/03/10 11:17:48;;;;;;;35.33;23.10;;;9.00;81.00;;;;;;5054693;28;20114;-78
2021/03/10 11:20:15;;;;;;;37.87;23.10;;;9.00;80.80;;;;;;5070357;28;20040;-79
2021/03/10 11:22:40;;;;;;;36.70;22.70;;;9.00;80.50;;;;;;5020356;28;20132;-79
2021/03/10 11:25:07;;;;;;;38.03;23.27;;;9.10;80.10;;;;;;5020675;28;20049;-79
2021/03/10 11:27:33;;;;;;;36.80;21.67;;;9.10;79.40;;;;;;5036916;28;20021;-79
2021/03/10 11:29:59;;;;;;;34.30;21.47;;;9.10;79.10;;;;;;5041043;28;20083;-78
2021/03/10 11:32:25;;;;;;;35.17;21.23;;;9.10;78.50;;;;;;5070080;28;20123;-79
2021/03/10 11:34:50;;;;;;;39.37;21.17;;;9.20;78.30;;;;;;5066614;28;20062;-78
2021/03/10 11:37:17;;;;;;;36.70;21.37;;;9.20;77.90;;;;;;5070207;28;20361;-79
2021/03/10 11:39:43;;;;;;;34.10;21.07;;;9.30;77.80;;;;;;5048047;28;20037;-79
2021/03/10 11:42:09;;;;;;;35.03;20.70;;;9.30;77.80;;;;;;5064180;28;20169;-79
2021/03/10 11:44:35;;;;;;;35.30;21.07;;;9.30;77.70;;;;;;5064670;28;20029;-80
2021/03/10 11:47:01;;;;;;;33.57;21.23;;;9.40;77.40;;;;;;5062138;28;20028;-79
2021/03/10 11:49:27;;;;;;;31.93;20.13;;;9.50;77.00;;;;;;5064379;28;20025;-80
2021/03/10 11:51:52;;;;;;;34.00;20.10;;;9.50;76.80;;;;;;5034051;28;20052;-79
2021/03/10 11:54:18;;;;;;;33.50;19.80;;;9.60;75.80;;;;;;5028162;28;20071;-82
2021/03/10 11:56:44;;;;;;;33.97;19.73;;;9.50;74.70;;;;;;5061793;28;20943;-80
2021/03/10 11:59:09;;;;;;;32.93;19.47;;;9.50;74.70;;;;;;5061430;28;20385;-81
2021/03/10 12:01:35;;;;;;;31.03;20.57;;;9.70;75.40;;;;;;5053096;28;20051;-80
2021/03/10 12:04:01;;;;;;;29.37;18.00;;;9.60;75.10;;;;;;5055363;28;20025;-80
2021/03/10 12:06:27;;;;;;;30.80;18.33;;;9.60;75.30;;;;;;5063838;28;20025;-80
2021/03/10 12:08:53;;;;;;;34.50;19.27;;;9.70;75.20;;;;;;5061641;28;20090;-78
2021/03/10 12:11:19;;;;;;;26.67;17.30;;;9.70;74.60;;;;;;5063721;28;20028;-80
2021/03/10 12:13:45;;;;;;;30.17;17.80;;;9.80;75.60;;;;;;5063203;28;20037;-81
2021/03/10 12:16:10;;;;;;;30.77;18.07;;;9.80;74.50;;;;;;5024364;28;20036;-82
2021/03/10 12:18:37;;;;;;;30.93;16.67;;;9.90;74.00;;;;;;5043446;28;20029;-81
2021/03/10 12:21:03;;;;;;;24.90;17.03;;;10.00;73.90;;;;;;5062274;28;20029;-82
2021/03/10 12:23:29;;;;;;;30.43;16.97;;;10.00;73.40;;;;;;5063230;28;20045;-81
2021/03/10 12:25:54;;;;;;;27.60;17.50;;;10.10;73.40;;;;;;5045998;28;20040;-81
2021/03/10 12:28:20;;;;;;;24.77;16.17;;;10.20;73.20;;;;;;5070666;28;20468;-79
2021/03/10 12:30:46;;;;;;;28.47;16.63;;;10.20;72.50;;;;;;5057471;28;20436;-80
2021/03/10 12:33:12;;;;;;;28.60;17.63;;;10.30;72.30;;;;;;5074287;28;20029;-78
2021/03/10 12:35:38;;;;;;;29.03;16.63;;;10.50;72.50;;;;;;5059225;28;20028;-82
2021/03/10 12:38:04;;;;;;;28.40;16.03;;;10.60;71.70;;;;;;5058736;28;20043;-80